Terminal Aerodrome Forecast
Issued by NWS Jackson, KY

Current Version | Previous Version | Text Only | Print | Product List | Glossary On
Versions: 1 2 3 4 5 6 7 8 9 10 11 12 13 14 15 16 17 18 19 20 21 22 23 24 25 26 27
000
FTUS43 KJKL 212300 RRA
TAFJKL
TAF
KJKL 212341Z 2200/2224 00000KT P6SM SCT001 BKN110
     FM220600 VRB03KT 3SM BR SCT040
     FM221400 25007KT P6SM BKN030
     FM221800 24007KT P6SM VCTS SCT050CB=

USA.gov is the U.S. government's official web portal to all federal, state and local government web resources and services.